sensor_id;sensor_type;location;lat;lon;timestamp;temperature;humidity
41756;DHT22;27435;48.480;9.258;2022-07-29T00:01:07;18.40;99.00
41756;DHT22;27435;48.480;9.258;2022-07-29T00:03:32;18.40;99.00
41756;DHT22;27435;48.480;9.258;2022-07-29T00:05:58;18.40;99.00
41756;DHT22;27435;48.480;9.258;2022-07-29T00:08:24;18.30;99.00
41756;DHT22;27435;48.480;9.258;2022-07-29T00:10:49;18.30;99.00
41756;DHT22;27435;48.480;9.258;2022-07-29T00:13:15;18.30;99.00
41756;DHT22;27435;48.480;9.258;2022-07-29T00:15:41;18.20;99.00
41756;DHT22;27435;48.480;9.258;2022-07-29T00:18:06;18.20;99.00
41756;DHT22;27435;48.480;9.258;2022-07-29T00:20:32;18.10;99.00
41756;DHT22;27435;48.480;9.258;2022-07-29T00:22:58;18.10;99.00
41756;DHT22;27435;48.480;9.258;2022-07-29T00:25:23;18.00;99.00
41756;DHT22;27435;48.480;9.258;2022-07-29T00:27:49;18.00;99.00
41756;DHT22;27435;48.480;9.258;2022-07-29T00:30:15;18.00;99.00
41756;DHT22;27435;48.480;9.258;2022-07-29T00:32:40;17.90;99.00
41756;DHT22;27435;48.480;9.258;2022-07-29T00:35:06;17.90;99.00
41756;DHT22;27435;48.480;9.258;2022-07-29T00:37:51;17.90;99.00
41756;DHT22;27435;48.480;9.258;2022-07-29T00:40:17;17.90;99.00
41756;DHT22;27435;48.480;9.258;2022-07-29T00:42:47;17.80;99.00
41756;DHT22;27435;48.480;9.258;2022-07-29T00:45:14;17.90;99.00
41756;DHT22;27435;48.480;9.258;2022-07-29T00:47:41;17.90;99.00
41756;DHT22;27435;48.480;9.258;2022-07-29T00:50:08;17.90;99.00
41756;DHT22;27435;48.480;9.258;2022-07-29T00:52:38;17.80;99.00
41756;DHT22;27435;48.480;9.258;2022-07-29T00:55:06;17.90;99.00
41756;DHT22;27435;48.480;9.258;2022-07-29T00:57:33;17.90;99.00
41756;DHT22;27435;48.480;9.258;2022-07-29T00:59:59;17.90;99.00
41756;DHT22;27435;48.480;9.258;2022-07-29T01:02:24;17.90;99.00
41756;DHT22;27435;48.480;9.258;2022-07-29T01:04:50;17.90;99.00
41756;DHT22;27435;48.480;9.258;2022-07-29T01:07:17;17.80;99.00
41756;DHT22;27435;48.480;9.258;2022-07-29T01:09:44;17.70;99.00
41756;DHT22;27435;48.480;9.258;2022-07-29T01:12:15;17.60;99.00
41756;DHT22;27435;48.480;9.258;2022-07-29T01:14:42;17.60;99.00
41756;DHT22;27435;48.480;9.258;2022-07-29T01:17:17;17.60;99.00
41756;DHT22;27435;48.480;9.258;2022-07-29T01:20:05;17.60;99.00
41756;DHT22;27435;48.480;9.258;2022-07-29T01:34:03;17.70;99.00
41756;DHT22;27435;48.480;9.258;2022-07-29T01:36:47;17.70;99.00
41756;DHT22;27435;48.480;9.258;2022-07-29T01:39:33;17.70;99.00
41756;DHT22;27435;48.480;9.258;2022-07-29T01:45:02;17.80;99.00
41756;DHT22;27435;48.480;9.258;2022-07-29T01:47:34;17.70;99.00
41756;DHT22;27435;48.480;9.258;2022-07-29T01:50:06;17.70;99.00
41756;DHT22;27435;48.480;9.258;2022-07-29T01:52:39;17.60;99.00
41756;DHT22;27435;48.480;9.258;2022-07-29T01:55:13;17.50;99.00
41756;DHT22;27435;48.480;9.258;2022-07-29T01:57:40;17.50;99.00
41756;DHT22;27435;48.480;9.258;2022-07-29T02:00:08;17.40;99.00
41756;DHT22;27435;48.480;9.258;2022-07-29T02:02:35;17.50;99.00
41756;DHT22;27435;48.480;9.258;2022-07-29T02:05:06;17.40;99.00
41756;DHT22;27435;48.480;9.258;2022-07-29T02:07:33;17.40;99.00
41756;DHT22;27435;48.480;9.258;2022-07-29T02:10:02;17.40;99.00
41756;DHT22;27435;48.480;9.258;2022-07-29T02:12:29;17.30;99.00
41756;DHT22;27435;48.480;9.258;2022-07-29T02:14:59;17.30;99.00
41756;DHT22;27435;48.480;9.258;2022-07-29T02:17:50;17.30;99.00
41756;DHT22;27435;48.480;9.258;2022-07-29T02:20:16;17.30;99.00
41756;DHT22;27435;48.480;9.258;2022-07-29T02:22:44;17.20;99.00
41756;DHT22;27435;48.480;9.258;2022-07-29T02:25:11;17.20;99.00
41756;DHT22;27435;48.480;9.258;2022-07-29T02:27:38;17.20;99.00
41756;DHT22;27435;48.480;9.258;2022-07-29T02:30:05;17.20;99.00
41756;DHT22;27435;48.480;9.258;2022-07-29T02:32:34;17.10;99.00
41756;DHT22;27435;48.480;9.258;2022-07-29T02:35:02;17.20;99.00
41756;DHT22;27435;48.480;9.258;2022-07-29T02:37:28;17.10;99.00
41756;DHT22;27435;48.480;9.258;2022-07-29T02:39:55;17.10;99.00
41756;DHT22;27435;48.480;9.258;2022-07-29T02:42:24;17.10;99.00
41756;DHT22;27435;48.480;9.258;2022-07-29T02:44:51;17.30;99.00
41756;DHT22;27435;48.480;9.258;2022-07-29T02:47:41;17.30;99.00
41756;DHT22;27435;48.480;9.258;2022-07-29T02:52:44;17.40;99.00
41756;DHT22;27435;48.480;9.258;2022-07-29T02:57:43;17.80;99.00
41756;DHT22;27435;48.480;9.258;2022-07-29T03:00:10;17.80;99.00
41756;DHT22;27435;48.480;9.258;2022-07-29T03:02:45;17.80;99.00
41756;DHT22;27435;48.480;9.258;2022-07-29T03:05:18;17.80;99.00
41756;DHT22;27435;48.480;9.258;2022-07-29T03:07:53;17.70;99.00
41756;DHT22;27435;48.480;9.258;2022-07-29T03:10:20;17.70;99.00
41756;DHT22;27435;48.480;9.258;2022-07-29T03:12:47;17.50;99.00
41756;DHT22;27435;48.480;9.258;2022-07-29T03:15:13;17.50;99.00
41756;DHT22;27435;48.480;9.258;2022-07-29T03:17:39;17.60;99.00
41756;DHT22;27435;48.480;9.258;2022-07-29T03:20:06;17.50;99.00
41756;DHT22;27435;48.480;9.258;2022-07-29T03:22:33;17.50;99.00
41756;DHT22;27435;48.480;9.258;2022-07-29T03:25:08;17.50;99.00
41756;DHT22;27435;48.480;9.258;2022-07-29T03:27:34;17.50;99.00
41756;DHT22;27435;48.480;9.258;2022-07-29T03:29:59;17.60;99.00
41756;DHT22;27435;48.480;9.258;2022-07-29T03:32:25;17.60;99.00
41756;DHT22;27435;48.480;9.258;2022-07-29T03:34:51;17.50;99.00
41756;DHT22;27435;48.480;9.258;2022-07-29T03:37:16;17.40;99.00
41756;DHT22;27435;48.480;9.258;2022-07-29T03:39:43;17.30;99.00
41756;DHT22;27435;48.480;9.258;2022-07-29T03:42:12;17.20;99.00
41756;DHT22;27435;48.480;9.258;2022-07-29T03:44:41;17.20;99.00
41756;DHT22;27435;48.480;9.258;2022-07-29T03:47:09;17.20;99.00
41756;DHT22;27435;48.480;9.258;2022-07-29T03:49:36;17.20;99.00
41756;DHT22;27435;48.480;9.258;2022-07-29T03:52:04;17.20;99.00
41756;DHT22;27435;48.480;9.258;2022-07-29T03:54:30;17.10;99.00
41756;DHT22;27435;48.480;9.258;2022-07-29T03:56:59;17.10;99.00
41756;DHT22;27435;48.480;9.258;2022-07-29T03:59:26;17.20;99.00
41756;DHT22;27435;48.480;9.258;2022-07-29T04:01:53;17.10;99.00
41756;DHT22;27435;48.480;9.258;2022-07-29T04:04:19;17.10;99.00
41756;DHT22;27435;48.480;9.258;2022-07-29T04:06:46;17.20;99.00
41756;DHT22;27435;48.480;9.258;2022-07-29T04:09:12;17.10;99.00
41756;DHT22;27435;48.480;9.258;2022-07-29T04:11:39;16.90;99.00
41756;DHT22;27435;48.480;9.258;2022-07-29T04:14:05;17.10;99.00
41756;DHT22;27435;48.480;9.258;2022-07-29T04:16:31;17.20;99.00
41756;DHT22;27435;48.480;9.258;2022-07-29T04:18:57;17.20;99.00
41756;DHT22;27435;48.480;9.258;2022-07-29T04:21:22;17.20;99.00
41756;DHT22;27435;48.480;9.258;2022-07-29T04:23:48;17.20;99.00
41756;DHT22;27435;48.480;9.258;2022-07-29T04:26:18;17.30;99.00
41756;DHT22;27435;48.480;9.258;2022-07-29T04:28:50;17.30;99.00
41756;DHT22;27435;48.480;9.258;2022-07-29T04:31:16;17.30;99.00
41756;DHT22;27435;48.480;9.258;2022-07-29T04:33:42;17.40;99.00
41756;DHT22;27435;48.480;9.258;2022-07-29T04:36:07;17.40;99.00
41756;DHT22;27435;48.480;9.258;2022-07-29T04:38:33;17.30;99.00
41756;DHT22;27435;48.480;9.258;2022-07-29T04:40:59;17.40;99.00
41756;DHT22;27435;48.480;9.258;2022-07-29T04:43:24;17.50;99.00
41756;DHT22;27435;48.480;9.258;2022-07-29T04:45:50;17.50;99.00
41756;DHT22;27435;48.480;9.258;2022-07-29T04:48:16;17.60;99.00
41756;DHT22;27435;48.480;9.258;2022-07-29T04:50:41;17.70;99.00
41756;DHT22;27435;48.480;9.258;2022-07-29T04:53:07;17.60;99.00
41756;DHT22;27435;48.480;9.258;2022-07-29T04:55:33;17.60;99.00
41756;DHT22;27435;48.480;9.258;2022-07-29T04:57:59;17.50;99.00
41756;DHT22;27435;48.480;9.258;2022-07-29T05:00:25;17.50;99.00
41756;DHT22;27435;48.480;9.258;2022-07-29T05:02:50;17.40;99.00
41756;DHT22;27435;48.480;9.258;2022-07-29T05:05:16;17.30;99.00
41756;DHT22;27435;48.480;9.258;2022-07-29T05:07:41;17.40;99.00
41756;DHT22;27435;48.480;9.258;2022-07-29T05:10:08;17.60;99.00
41756;DHT22;27435;48.480;9.258;2022-07-29T05:12:33;17.50;99.00
41756;DHT22;27435;48.480;9.258;2022-07-29T05:14:59;17.30;99.00
41756;DHT22;27435;48.480;9.258;2022-07-29T05:17:25;17.50;99.00
41756;DHT22;27435;48.480;9.258;2022-07-29T05:19:52;17.50;99.00
41756;DHT22;27435;48.480;9.258;2022-07-29T05:22:21;17.70;99.00
41756;DHT22;27435;48.480;9.258;2022-07-29T05:24:47;17.80;99.00
41756;DHT22;27435;48.480;9.258;2022-07-29T05:27:13;17.80;99.00
41756;DHT22;27435;48.480;9.258;2022-07-29T05:29:38;17.90;99.00
41756;DHT22;27435;48.480;9.258;2022-07-29T05:32:05;17.90;99.00
41756;DHT22;27435;48.480;9.258;2022-07-29T05:34:31;18.00;99.00
41756;DHT22;27435;48.480;9.258;2022-07-29T05:36:57;18.20;99.00
41756;DHT22;27435;48.480;9.258;2022-07-29T05:39:24;18.50;99.00
41756;DHT22;27435;48.480;9.258;2022-07-29T05:41:49;18.80;99.00
41756;DHT22;27435;48.480;9.258;2022-07-29T05:44:15;19.10;99.00
41756;DHT22;27435;48.480;9.258;2022-07-29T05:46:41;19.30;99.00
41756;DHT22;27435;48.480;9.258;2022-07-29T05:49:07;19.60;99.00
41756;DHT22;27435;48.480;9.258;2022-07-29T05:51:35;19.80;99.00
41756;DHT22;27435;48.480;9.258;2022-07-29T05:54:01;19.90;99.00
41756;DHT22;27435;48.480;9.258;2022-07-29T05:56:27;19.80;99.00
41756;DHT22;27435;48.480;9.258;2022-07-29T05:58:53;19.70;99.00
41756;DHT22;27435;48.480;9.258;2022-07-29T06:01:19;19.90;99.00
41756;DHT22;27435;48.480;9.258;2022-07-29T06:03:45;20.20;99.00
41756;DHT22;27435;48.480;9.258;2022-07-29T06:06:11;20.40;99.00
41756;DHT22;27435;48.480;9.258;2022-07-29T06:08:37;20.10;99.00
41756;DHT22;27435;48.480;9.258;2022-07-29T06:11:04;20.10;99.00
41756;DHT22;27435;48.480;9.258;2022-07-29T06:13:30;20.30;99.00
41756;DHT22;27435;48.480;9.258;2022-07-29T06:15:56;20.60;99.00
41756;DHT22;27435;48.480;9.258;2022-07-29T06:18:22;20.80;99.00
41756;DHT22;27435;48.480;9.258;2022-07-29T06:20:50;20.90;99.00
41756;DHT22;27435;48.480;9.258;2022-07-29T06:23:16;21.00;99.00
41756;DHT22;27435;48.480;9.258;2022-07-29T06:25:42;21.20;99.00
41756;DHT22;27435;48.480;9.258;2022-07-29T06:28:07;21.00;99.00
41756;DHT22;27435;48.480;9.258;2022-07-29T06:30:33;20.90;99.00
41756;DHT22;27435;48.480;9.258;2022-07-29T06:32:59;20.90;99.00
41756;DHT22;27435;48.480;9.258;2022-07-29T06:35:25;21.00;99.00
41756;DHT22;27435;48.480;9.258;2022-07-29T06:37:51;21.20;99.00
41756;DHT22;27435;48.480;9.258;2022-07-29T06:40:17;21.60;99.00
41756;DHT22;27435;48.480;9.258;2022-07-29T06:43:02;21.80;99.00
41756;DHT22;27435;48.480;9.258;2022-07-29T06:45:27;21.80;99.00
41756;DHT22;27435;48.480;9.258;2022-07-29T06:47:53;22.30;97.20
41756;DHT22;27435;48.480;9.258;2022-07-29T06:50:18;22.80;95.70
41756;DHT22;27435;48.480;9.258;2022-07-29T06:52:44;23.70;91.10
41756;DHT22;27435;48.480;9.258;2022-07-29T06:55:10;24.70;86.30
41756;DHT22;27435;48.480;9.258;2022-07-29T06:57:35;25.10;84.60
41756;DHT22;27435;48.480;9.258;2022-07-29T07:00:01;25.20;83.30
41756;DHT22;27435;48.480;9.258;2022-07-29T07:02:29;25.60;81.30
41756;DHT22;27435;48.480;9.258;2022-07-29T07:04:55;25.90;78.30
41756;DHT22;27435;48.480;9.258;2022-07-29T07:07:21;25.70;77.90
41756;DHT22;27435;48.480;9.258;2022-07-29T07:09:46;25.40;80.00
41756;DHT22;27435;48.480;9.258;2022-07-29T07:12:12;25.30;80.10
41756;DHT22;27435;48.480;9.258;2022-07-29T07:14:38;25.00;80.50
41756;DHT22;27435;48.480;9.258;2022-07-29T07:17:05;25.00;78.40
41756;DHT22;27435;48.480;9.258;2022-07-29T07:19:32;25.10;74.80
41756;DHT22;27435;48.480;9.258;2022-07-29T07:21:57;24.70;76.40
41756;DHT22;27435;48.480;9.258;2022-07-29T07:24:23;25.00;74.70
41756;DHT22;27435;48.480;9.258;2022-07-29T07:26:49;25.30;73.80
41756;DHT22;27435;48.480;9.258;2022-07-29T07:29:14;24.90;75.10
41756;DHT22;27435;48.480;9.258;2022-07-29T07:31:40;24.80;75.30
41756;DHT22;27435;48.480;9.258;2022-07-29T07:34:06;25.10;76.00
41756;DHT22;27435;48.480;9.258;2022-07-29T07:36:31;24.90;76.20
41756;DHT22;27435;48.480;9.258;2022-07-29T07:38:57;24.90;73.30
41756;DHT22;27435;48.480;9.258;2022-07-29T07:41:23;23.80;77.60
41756;DHT22;27435;48.480;9.258;2022-07-29T07:43:48;23.80;79.90
41756;DHT22;27435;48.480;9.258;2022-07-29T07:46:14;24.00;79.40
41756;DHT22;27435;48.480;9.258;2022-07-29T07:48:40;23.80;78.00
41756;DHT22;27435;48.480;9.258;2022-07-29T07:51:06;23.90;76.30
41756;DHT22;27435;48.480;9.258;2022-07-29T07:53:33;24.00;77.20
41756;DHT22;27435;48.480;9.258;2022-07-29T07:55:59;24.20;78.40
41756;DHT22;27435;48.480;9.258;2022-07-29T07:58:24;24.70;77.20
41756;DHT22;27435;48.480;9.258;2022-07-29T08:00:50;24.70;76.90
41756;DHT22;27435;48.480;9.258;2022-07-29T08:03:15;24.60;76.20
41756;DHT22;27435;48.480;9.258;2022-07-29T08:05:41;24.50;75.50
41756;DHT22;27435;48.480;9.258;2022-07-29T08:08:07;24.40;74.50
41756;DHT22;27435;48.480;9.258;2022-07-29T08:10:33;24.20;73.10
41756;DHT22;27435;48.480;9.258;2022-07-29T08:13:18;24.40;74.40
41756;DHT22;27435;48.480;9.258;2022-07-29T08:15:44;24.60;73.80
41756;DHT22;27435;48.480;9.258;2022-07-29T08:18:11;24.70;72.70
41756;DHT22;27435;48.480;9.258;2022-07-29T08:20:38;24.70;70.20
41756;DHT22;27435;48.480;9.258;2022-07-29T08:23:05;24.60;68.80
41756;DHT22;27435;48.480;9.258;2022-07-29T08:25:32;24.70;68.20
41756;DHT22;27435;48.480;9.258;2022-07-29T08:27:58;24.60;68.50
41756;DHT22;27435;48.480;9.258;2022-07-29T08:30:24;24.70;68.50
41756;DHT22;27435;48.480;9.258;2022-07-29T08:32:50;24.90;69.40
41756;DHT22;27435;48.480;9.258;2022-07-29T08:35:19;24.70;68.00
41756;DHT22;27435;48.480;9.258;2022-07-29T08:37:45;24.40;68.30
41756;DHT22;27435;48.480;9.258;2022-07-29T08:40:11;24.40;69.40
41756;DHT22;27435;48.480;9.258;2022-07-29T08:42:36;24.60;69.20
41756;DHT22;27435;48.480;9.258;2022-07-29T08:45:03;24.60;69.80
41756;DHT22;27435;48.480;9.258;2022-07-29T08:47:29;24.60;68.20
41756;DHT22;27435;48.480;9.258;2022-07-29T08:49:55;24.70;68.50
41756;DHT22;27435;48.480;9.258;2022-07-29T08:52:22;24.70;66.50
41756;DHT22;27435;48.480;9.258;2022-07-29T08:54:51;24.50;67.30
41756;DHT22;27435;48.480;9.258;2022-07-29T08:57:18;24.30;66.90
41756;DHT22;27435;48.480;9.258;2022-07-29T08:59:46;24.40;68.40
41756;DHT22;27435;48.480;9.258;2022-07-29T09:02:20;24.60;66.80
41756;DHT22;27435;48.480;9.258;2022-07-29T09:04:46;24.50;66.90
41756;DHT22;27435;48.480;9.258;2022-07-29T09:07:21;24.50;68.50
41756;DHT22;27435;48.480;9.258;2022-07-29T09:09:47;24.50;67.40
41756;DHT22;27435;48.480;9.258;2022-07-29T09:12:12;24.50;67.80
41756;DHT22;27435;48.480;9.258;2022-07-29T09:14:39;24.50;68.10
41756;DHT22;27435;48.480;9.258;2022-07-29T09:17:06;24.70;67.70
41756;DHT22;27435;48.480;9.258;2022-07-29T09:19:34;25.00;67.60
41756;DHT22;27435;48.480;9.258;2022-07-29T09:22:04;25.30;67.50
41756;DHT22;27435;48.480;9.258;2022-07-29T09:27:24;25.20;67.30
41756;DHT22;27435;48.480;9.258;2022-07-29T09:30:04;25.20;67.40
41756;DHT22;27435;48.480;9.258;2022-07-29T09:32:31;25.50;67.00
41756;DHT22;27435;48.480;9.258;2022-07-29T09:37:43;25.60;65.90
41756;DHT22;27435;48.480;9.258;2022-07-29T09:40:27;26.00;65.40
41756;DHT22;27435;48.480;9.258;2022-07-29T09:42:54;26.40;64.10
41756;DHT22;27435;48.480;9.258;2022-07-29T09:45:33;26.20;64.60
41756;DHT22;27435;48.480;9.258;2022-07-29T09:47:59;26.60;64.10
41756;DHT22;27435;48.480;9.258;2022-07-29T09:50:36;26.70;62.80
41756;DHT22;27435;48.480;9.258;2022-07-29T09:53:01;27.10;62.30
41756;DHT22;27435;48.480;9.258;2022-07-29T09:55:27;27.10;63.20
41756;DHT22;27435;48.480;9.258;2022-07-29T09:57:53;26.80;63.20
41756;DHT22;27435;48.480;9.258;2022-07-29T10:00:20;26.60;63.60
41756;DHT22;27435;48.480;9.258;2022-07-29T10:02:48;26.70;63.70
41756;DHT22;27435;48.480;9.258;2022-07-29T10:05:22;26.90;63.30
41756;DHT22;27435;48.480;9.258;2022-07-29T10:07:51;26.60;63.10
41756;DHT22;27435;48.480;9.258;2022-07-29T10:12:54;26.30;65.20
41756;DHT22;27435;48.480;9.258;2022-07-29T10:15:25;26.30;64.60
41756;DHT22;27435;48.480;9.258;2022-07-29T10:17:52;26.30;63.80
41756;DHT22;27435;48.480;9.258;2022-07-29T10:20:19;26.30;63.90
41756;DHT22;27435;48.480;9.258;2022-07-29T10:22:47;26.40;63.90
41756;DHT22;27435;48.480;9.258;2022-07-29T10:25:14;26.70;63.70
41756;DHT22;27435;48.480;9.258;2022-07-29T10:27:39;26.80;63.90
41756;DHT22;27435;48.480;9.258;2022-07-29T10:30:06;26.70;63.60
41756;DHT22;27435;48.480;9.258;2022-07-29T10:32:38;26.90;64.40
41756;DHT22;27435;48.480;9.258;2022-07-29T10:43:43;28.20;60.70
41756;DHT22;27435;48.480;9.258;2022-07-29T10:46:13;28.80;59.70
41756;DHT22;27435;48.480;9.258;2022-07-29T10:59:43;27.90;59.00
41756;DHT22;27435;48.480;9.258;2022-07-29T11:07:22;28.40;57.60
41756;DHT22;27435;48.480;9.258;2022-07-29T11:15:04;28.70;57.50
41756;DHT22;27435;48.480;9.258;2022-07-29T11:20:48;28.80;57.20
41756;DHT22;27435;48.480;9.258;2022-07-29T11:23:23;28.90;57.20
41756;DHT22;27435;48.480;9.258;2022-07-29T11:29:08;28.40;57.40
41756;DHT22;27435;48.480;9.258;2022-07-29T11:31:46;28.30;57.10
41756;DHT22;27435;48.480;9.258;2022-07-29T11:34:25;28.20;57.70
41756;DHT22;27435;48.480;9.258;2022-07-29T11:47:25;28.50;58.00
41756;DHT22;27435;48.480;9.258;2022-07-29T11:49:54;28.60;57.30
41756;DHT22;27435;48.480;9.258;2022-07-29T11:52:20;28.20;58.50
41756;DHT22;27435;48.480;9.258;2022-07-29T11:54:50;27.10;63.10
41756;DHT22;27435;48.480;9.258;2022-07-29T11:57:17;26.80;64.80
41756;DHT22;27435;48.480;9.258;2022-07-29T11:59:45;26.70;65.60
41756;DHT22;27435;48.480;9.258;2022-07-29T12:02:15;26.60;65.60
41756;DHT22;27435;48.480;9.258;2022-07-29T12:04:55;25.90;68.30
41756;DHT22;27435;48.480;9.258;2022-07-29T12:07:32;25.60;70.10
41756;DHT22;27435;48.480;9.258;2022-07-29T12:10:05;24.90;72.10
41756;DHT22;27435;48.480;9.258;2022-07-29T12:12:38;24.30;73.80
41756;DHT22;27435;48.480;9.258;2022-07-29T12:15:12;24.10;75.00
41756;DHT22;27435;48.480;9.258;2022-07-29T12:17:38;23.90;76.40
41756;DHT22;27435;48.480;9.258;2022-07-29T12:20:07;23.90;76.70
41756;DHT22;27435;48.480;9.258;2022-07-29T12:22:36;23.50;77.80
41756;DHT22;27435;48.480;9.258;2022-07-29T12:25:12;23.30;78.60
41756;DHT22;27435;48.480;9.258;2022-07-29T12:27:39;23.30;77.60
41756;DHT22;27435;48.480;9.258;2022-07-29T12:30:11;23.30;77.30
41756;DHT22;27435;48.480;9.258;2022-07-29T12:32:46;23.00;77.60
41756;DHT22;27435;48.480;9.258;2022-07-29T12:35:14;22.80;78.00
41756;DHT22;27435;48.480;9.258;2022-07-29T12:37:43;22.60;78.40
41756;DHT22;27435;48.480;9.258;2022-07-29T12:40:12;22.40;79.20
41756;DHT22;27435;48.480;9.258;2022-07-29T12:42:39;21.80;86.60
41756;DHT22;27435;48.480;9.258;2022-07-29T12:45:05;20.60;97.90
41756;DHT22;27435;48.480;9.258;2022-07-29T12:47:32;20.20;99.00
41756;DHT22;27435;48.480;9.258;2022-07-29T12:50:13;19.30;99.00
41756;DHT22;27435;48.480;9.258;2022-07-29T12:52:45;18.80;99.00
41756;DHT22;27435;48.480;9.258;2022-07-29T12:55:11;18.60;99.00
41756;DHT22;27435;48.480;9.258;2022-07-29T12:57:47;18.70;99.00
41756;DHT22;27435;48.480;9.258;2022-07-29T13:00:14;18.90;99.00
41756;DHT22;27435;48.480;9.258;2022-07-29T13:02:42;19.40;99.00
41756;DHT22;27435;48.480;9.258;2022-07-29T13:05:09;19.90;99.00
41756;DHT22;27435;48.480;9.258;2022-07-29T13:07:36;20.40;99.00
41756;DHT22;27435;48.480;9.258;2022-07-29T13:10:20;20.90;99.00
41756;DHT22;27435;48.480;9.258;2022-07-29T13:13:05;21.60;99.00
41756;DHT22;27435;48.480;9.258;2022-07-29T13:15:32;22.20;99.00
41756;DHT22;27435;48.480;9.258;2022-07-29T13:17:58;22.60;99.00
41756;DHT22;27435;48.480;9.258;2022-07-29T13:20:25;22.80;99.00
41756;DHT22;27435;48.480;9.258;2022-07-29T13:22:52;23.00;99.00
41756;DHT22;27435;48.480;9.258;2022-07-29T13:25:32;23.40;99.00
41756;DHT22;27435;48.480;9.258;2022-07-29T13:27:59;23.40;98.80
41756;DHT22;27435;48.480;9.258;2022-07-29T13:30:27;23.10;99.00
41756;DHT22;27435;48.480;9.258;2022-07-29T13:32:53;23.20;96.50
41756;DHT22;27435;48.480;9.258;2022-07-29T13:35:19;23.80;98.10
41756;DHT22;27435;48.480;9.258;2022-07-29T13:37:45;24.60;94.90
41756;DHT22;27435;48.480;9.258;2022-07-29T13:40:12;24.80;88.80
41756;DHT22;27435;48.480;9.258;2022-07-29T13:42:38;24.50;92.50
41756;DHT22;27435;48.480;9.258;2022-07-29T13:45:04;24.20;90.50
41756;DHT22;27435;48.480;9.258;2022-07-29T13:47:32;23.60;93.10
41756;DHT22;27435;48.480;9.258;2022-07-29T13:49:57;23.30;96.20
41756;DHT22;27435;48.480;9.258;2022-07-29T13:52:23;22.90;88.90
41756;DHT22;27435;48.480;9.258;2022-07-29T13:54:49;22.90;86.70
41756;DHT22;27435;48.480;9.258;2022-07-29T13:57:15;23.10;89.90
41756;DHT22;27435;48.480;9.258;2022-07-29T13:59:42;23.10;88.70
41756;DHT22;27435;48.480;9.258;2022-07-29T14:02:08;23.40;86.30
41756;DHT22;27435;48.480;9.258;2022-07-29T14:04:37;23.70;85.90
41756;DHT22;27435;48.480;9.258;2022-07-29T14:07:03;23.60;83.90
41756;DHT22;27435;48.480;9.258;2022-07-29T14:09:29;23.30;84.40
41756;DHT22;27435;48.480;9.258;2022-07-29T14:11:55;23.10;85.40
41756;DHT22;27435;48.480;9.258;2022-07-29T14:14:21;23.20;85.10
41756;DHT22;27435;48.480;9.258;2022-07-29T14:16:47;23.20;83.50
41756;DHT22;27435;48.480;9.258;2022-07-29T14:19:12;23.20;84.20
41756;DHT22;27435;48.480;9.258;2022-07-29T14:21:38;23.10;85.90
41756;DHT22;27435;48.480;9.258;2022-07-29T14:24:05;23.10;85.50
41756;DHT22;27435;48.480;9.258;2022-07-29T14:26:31;23.10;85.30
41756;DHT22;27435;48.480;9.258;2022-07-29T14:28:57;23.10;84.10
41756;DHT22;27435;48.480;9.258;2022-07-29T14:31:22;23.10;83.80
41756;DHT22;27435;48.480;9.258;2022-07-29T14:33:48;23.10;84.90
41756;DHT22;27435;48.480;9.258;2022-07-29T14:36:14;23.30;85.50
41756;DHT22;27435;48.480;9.258;2022-07-29T14:38:40;23.70;83.40
41756;DHT22;27435;48.480;9.258;2022-07-29T14:41:06;24.00;81.60
41756;DHT22;27435;48.480;9.258;2022-07-29T14:43:33;24.20;82.90
41756;DHT22;27435;48.480;9.258;2022-07-29T14:45:59;24.20;81.80
41756;DHT22;27435;48.480;9.258;2022-07-29T14:48:25;24.30;81.30
41756;DHT22;27435;48.480;9.258;2022-07-29T14:50:50;24.40;80.00
41756;DHT22;27435;48.480;9.258;2022-07-29T14:53:16;24.50;80.60
41756;DHT22;27435;48.480;9.258;2022-07-29T14:55:42;24.60;79.90
41756;DHT22;27435;48.480;9.258;2022-07-29T14:58:08;24.80;82.10
41756;DHT22;27435;48.480;9.258;2022-07-29T15:00:33;24.90;79.70
41756;DHT22;27435;48.480;9.258;2022-07-29T15:03:00;24.90;78.80
41756;DHT22;27435;48.480;9.258;2022-07-29T15:05:26;24.90;79.20
41756;DHT22;27435;48.480;9.258;2022-07-29T15:07:52;25.00;78.40
41756;DHT22;27435;48.480;9.258;2022-07-29T15:10:17;25.00;77.70
41756;DHT22;27435;48.480;9.258;2022-07-29T15:12:43;25.00;77.70
41756;DHT22;27435;48.480;9.258;2022-07-29T15:15:09;24.90;79.20
41756;DHT22;27435;48.480;9.258;2022-07-29T15:17:35;25.00;79.20
41756;DHT22;27435;48.480;9.258;2022-07-29T15:20:01;25.00;78.80
41756;DHT22;27435;48.480;9.258;2022-07-29T15:22:27;25.00;79.60
41756;DHT22;27435;48.480;9.258;2022-07-29T15:24:52;25.10;78.80
41756;DHT22;27435;48.480;9.258;2022-07-29T15:27:18;25.10;78.70
41756;DHT22;27435;48.480;9.258;2022-07-29T15:29:44;25.10;79.70
41756;DHT22;27435;48.480;9.258;2022-07-29T15:32:10;24.90;80.10
41756;DHT22;27435;48.480;9.258;2022-07-29T15:34:37;24.60;81.50
41756;DHT22;27435;48.480;9.258;2022-07-29T15:37:07;24.20;82.70
41756;DHT22;27435;48.480;9.258;2022-07-29T15:39:32;24.30;81.50
41756;DHT22;27435;48.480;9.258;2022-07-29T15:41:58;24.30;81.80
41756;DHT22;27435;48.480;9.258;2022-07-29T15:44:26;24.10;83.00
41756;DHT22;27435;48.480;9.258;2022-07-29T15:46:52;24.00;83.30
41756;DHT22;27435;48.480;9.258;2022-07-29T15:49:37;23.80;86.10
41756;DHT22;27435;48.480;9.258;2022-07-29T15:52:05;23.90;86.30
41756;DHT22;27435;48.480;9.258;2022-07-29T15:54:32;24.10;85.30
41756;DHT22;27435;48.480;9.258;2022-07-29T15:56:58;24.40;83.70
41756;DHT22;27435;48.480;9.258;2022-07-29T15:59:25;24.70;82.10
41756;DHT22;27435;48.480;9.258;2022-07-29T16:01:51;24.90;81.50
41756;DHT22;27435;48.480;9.258;2022-07-29T16:04:20;25.00;80.90
41756;DHT22;27435;48.480;9.258;2022-07-29T16:06:46;25.00;80.20
41756;DHT22;27435;48.480;9.258;2022-07-29T16:09:12;25.10;79.20
41756;DHT22;27435;48.480;9.258;2022-07-29T16:11:39;25.40;78.50
41756;DHT22;27435;48.480;9.258;2022-07-29T16:14:08;25.70;76.20
41756;DHT22;27435;48.480;9.258;2022-07-29T16:16:35;25.90;76.30
41756;DHT22;27435;48.480;9.258;2022-07-29T16:19:01;25.90;76.50
41756;DHT22;27435;48.480;9.258;2022-07-29T16:21:26;25.60;77.60
41756;DHT22;27435;48.480;9.258;2022-07-29T16:23:52;25.50;78.10
41756;DHT22;27435;48.480;9.258;2022-07-29T16:26:18;25.50;77.40
41756;DHT22;27435;48.480;9.258;2022-07-29T16:28:44;25.50;76.40
41756;DHT22;27435;48.480;9.258;2022-07-29T16:31:09;25.70;75.40
41756;DHT22;27435;48.480;9.258;2022-07-29T16:33:35;25.90;75.60
41756;DHT22;27435;48.480;9.258;2022-07-29T16:36:01;26.10;75.70
41756;DHT22;27435;48.480;9.258;2022-07-29T16:38:26;26.30;70.60
41756;DHT22;27435;48.480;9.258;2022-07-29T16:40:52;26.20;72.10
41756;DHT22;27435;48.480;9.258;2022-07-29T16:43:18;26.10;74.40
41756;DHT22;27435;48.480;9.258;2022-07-29T16:45:44;26.00;74.40
41756;DHT22;27435;48.480;9.258;2022-07-29T16:48:10;26.10;74.10